sensor_id;sensor_type;location;lat;lon;timestamp;pressure;altitude;pressure_sealevel;temperature;humidity
6829;BME280;17930;48.592;8.868;2022-11-15T00:02:18;96561.69;;;5.97;100.00
6829;BME280;17930;48.592;8.868;2022-11-15T00:04:45;96563.97;;;5.88;100.00
6829;BME280;17930;48.592;8.868;2022-11-15T00:07:12;96565.25;;;5.64;100.00
6829;BME280;17930;48.592;8.868;2022-11-15T00:09:39;96563.31;;;5.50;100.00
6829;BME280;17930;48.592;8.868;2022-11-15T00:12:06;96561.22;;;5.47;100.00
6829;BME280;17930;48.592;8.868;2022-11-15T00:14:34;96553.31;;;5.32;100.00
6829;BME280;17930;48.592;8.868;2022-11-15T00:17:01;96554.50;;;5.20;100.00
6829;BME280;17930;48.592;8.868;2022-11-15T00:19:28;96555.63;;;5.07;100.00
6829;BME280;17930;48.592;8.868;2022-11-15T00:21:54;96560.38;;;4.94;100.00
6829;BME280;17930;48.592;8.868;2022-11-15T00:24:23;96561.06;;;4.85;100.00
6829;BME280;17930;48.592;8.868;2022-11-15T00:26:50;96566.09;;;4.75;100.00
6829;BME280;17930;48.592;8.868;2022-11-15T00:29:17;96562.34;;;4.66;100.00
6829;BME280;17930;48.592;8.868;2022-11-15T00:31:45;96559.25;;;4.48;100.00
6829;BME280;17930;48.592;8.868;2022-11-15T00:34:12;96557.88;;;4.40;100.00
6829;BME280;17930;48.592;8.868;2022-11-15T00:36:39;96556.16;;;4.29;100.00
6829;BME280;17930;48.592;8.868;2022-11-15T00:39:06;96560.34;;;4.14;100.00
6829;BME280;17930;48.592;8.868;2022-11-15T00:41:33;96549.78;;;3.99;100.00
6829;BME280;17930;48.592;8.868;2022-11-15T00:44:03;96557.00;;;3.97;100.00
6829;BME280;17930;48.592;8.868;2022-11-15T00:46:30;96560.81;;;3.95;100.00
6829;BME280;17930;48.592;8.868;2022-11-15T00:48:58;96554.88;;;3.94;100.00
6829;BME280;17930;48.592;8.868;2022-11-15T00:51:25;96549.97;;;3.93;100.00
6829;BME280;17930;48.592;8.868;2022-11-15T00:53:52;96550.03;;;3.98;100.00
6829;BME280;17930;48.592;8.868;2022-11-15T00:56:19;96542.44;;;3.91;100.00
6829;BME280;17930;48.592;8.868;2022-11-15T00:58:46;96555.56;;;3.90;100.00
6829;BME280;17930;48.592;8.868;2022-11-15T01:01:14;96546.66;;;3.81;100.00
6829;BME280;17930;48.592;8.868;2022-11-15T01:03:41;96548.69;;;3.79;100.00
6829;BME280;17930;48.592;8.868;2022-11-15T01:06:09;96537.28;;;3.75;100.00
6829;BME280;17930;48.592;8.868;2022-11-15T01:08:46;96541.50;;;3.81;100.00
6829;BME280;17930;48.592;8.868;2022-11-15T01:11:16;96538.94;;;3.81;100.00
6829;BME280;17930;48.592;8.868;2022-11-15T01:13:43;96532.66;;;3.77;100.00
6829;BME280;17930;48.592;8.868;2022-11-15T01:16:12;96531.56;;;3.73;100.00
6829;BME280;17930;48.592;8.868;2022-11-15T01:18:47;96527.28;;;3.78;100.00
6829;BME280;17930;48.592;8.868;2022-11-15T01:21:17;96523.22;;;3.82;100.00
6829;BME280;17930;48.592;8.868;2022-11-15T01:23:45;96519.59;;;4.00;100.00
6829;BME280;17930;48.592;8.868;2022-11-15T01:26:14;96513.53;;;4.06;100.00
6829;BME280;17930;48.592;8.868;2022-11-15T01:28:41;96508.66;;;4.09;100.00
6829;BME280;17930;48.592;8.868;2022-11-15T01:31:15;96512.72;;;4.21;100.00
6829;BME280;17930;48.592;8.868;2022-11-15T01:33:42;96506.75;;;4.21;100.00
6829;BME280;17930;48.592;8.868;2022-11-15T01:36:12;96500.59;;;4.22;100.00
6829;BME280;17930;48.592;8.868;2022-11-15T01:38:41;96507.06;;;4.24;100.00
6829;BME280;17930;48.592;8.868;2022-11-15T01:41:14;96507.06;;;4.24;100.00
6829;BME280;17930;48.592;8.868;2022-11-15T01:43:42;96509.56;;;4.19;100.00
6829;BME280;17930;48.592;8.868;2022-11-15T01:46:23;96508.66;;;4.25;100.00
6829;BME280;17930;48.592;8.868;2022-11-15T01:48:52;96497.28;;;4.26;100.00
6829;BME280;17930;48.592;8.868;2022-11-15T01:51:21;96500.19;;;4.30;100.00
6829;BME280;17930;48.592;8.868;2022-11-15T01:53:55;96497.59;;;4.30;100.00
6829;BME280;17930;48.592;8.868;2022-11-15T01:56:29;96504.41;;;4.19;100.00
6829;BME280;17930;48.592;8.868;2022-11-15T01:58:58;96493.03;;;4.15;100.00
6829;BME280;17930;48.592;8.868;2022-11-15T02:01:28;96487.38;;;4.18;100.00
6829;BME280;17930;48.592;8.868;2022-11-15T02:04:01;96488.28;;;4.29;100.00
6829;BME280;17930;48.592;8.868;2022-11-15T02:06:30;96482.28;;;4.23;100.00
6829;BME280;17930;48.592;8.868;2022-11-15T02:08:59;96480.19;;;4.20;100.00
6829;BME280;17930;48.592;8.868;2022-11-15T02:11:26;96478.38;;;4.21;100.00
6829;BME280;17930;48.592;8.868;2022-11-15T02:13:54;96477.53;;;4.15;100.00
6829;BME280;17930;48.592;8.868;2022-11-15T02:16:28;96471.19;;;4.23;100.00
6829;BME280;17930;48.592;8.868;2022-11-15T02:19:02;96468.59;;;4.23;100.00
6829;BME280;17930;48.592;8.868;2022-11-15T02:21:36;96469.47;;;4.28;100.00
6829;BME280;17930;48.592;8.868;2022-11-15T02:24:27;96463.22;;;4.46;100.00
6829;BME280;17930;48.592;8.868;2022-11-15T02:27:26;96457.81;;;4.47;100.00
6829;BME280;17930;48.592;8.868;2022-11-15T02:30:24;96455.22;;;4.47;100.00
6829;BME280;17930;48.592;8.868;2022-11-15T02:32:54;96453.13;;;4.44;100.00
6829;BME280;17930;48.592;8.868;2022-11-15T02:35:39;96447.19;;;4.44;100.00
6829;BME280;17930;48.592;8.868;2022-11-15T02:38:17;96448.97;;;4.43;100.00
6829;BME280;17930;48.592;8.868;2022-11-15T02:40:53;96446.03;;;4.35;100.00
6829;BME280;17930;48.592;8.868;2022-11-15T02:43:26;96442.84;;;4.28;100.00
6829;BME280;17930;48.592;8.868;2022-11-15T02:46:18;96448.09;;;4.33;100.00
6829;BME280;17930;48.592;8.868;2022-11-15T02:49:10;96446.53;;;4.32;100.00
6829;BME280;17930;48.592;8.868;2022-11-15T02:51:38;96434.34;;;4.27;100.00
6829;BME280;17930;48.592;8.868;2022-11-15T02:54:06;96429.19;;;4.27;100.00
6829;BME280;17930;48.592;8.868;2022-11-15T02:56:33;96425.09;;;4.31;100.00
6829;BME280;17930;48.592;8.868;2022-11-15T02:59:21;96425.69;;;4.38;100.00
6829;BME280;17930;48.592;8.868;2022-11-15T03:02:00;96423.47;;;4.47;100.00
6829;BME280;17930;48.592;8.868;2022-11-15T03:04:38;96417.22;;;4.64;100.00
6829;BME280;17930;48.592;8.868;2022-11-15T03:07:14;96419.03;;;4.63;100.00
6829;BME280;17930;48.592;8.868;2022-11-15T03:09:50;96416.78;;;4.72;100.00
6829;BME280;17930;48.592;8.868;2022-11-15T03:12:24;96418.50;;;4.88;100.00
6829;BME280;17930;48.592;8.868;2022-11-15T03:14:56;96413.91;;;4.95;100.00
6829;BME280;17930;48.592;8.868;2022-11-15T03:17:28;96419.59;;;4.97;100.00
6829;BME280;17930;48.592;8.868;2022-11-15T03:19:59;96423.50;;;4.99;100.00
6829;BME280;17930;48.592;8.868;2022-11-15T03:22:28;96420.38;;;4.97;100.00
6829;BME280;17930;48.592;8.868;2022-11-15T03:24:59;96409.25;;;4.92;100.00
6829;BME280;17930;48.592;8.868;2022-11-15T03:27:30;96410.50;;;4.89;100.00
6829;BME280;17930;48.592;8.868;2022-11-15T03:30:02;96414.34;;;4.87;100.00
6829;BME280;17930;48.592;8.868;2022-11-15T03:32:35;96406.66;;;4.92;100.00
6829;BME280;17930;48.592;8.868;2022-11-15T03:35:06;96411.75;;;4.87;100.00
6829;BME280;17930;48.592;8.868;2022-11-15T03:37:37;96409.41;;;4.85;100.00
6829;BME280;17930;48.592;8.868;2022-11-15T03:40:08;96405.00;;;4.81;100.00
6829;BME280;17930;48.592;8.868;2022-11-15T03:42:39;96401.28;;;4.72;100.00
6829;BME280;17930;48.592;8.868;2022-11-15T03:45:14;96394.03;;;4.69;100.00
6829;BME280;17930;48.592;8.868;2022-11-15T03:47:52;96396.63;;;4.69;100.00
6829;BME280;17930;48.592;8.868;2022-11-15T03:50:22;96387.81;;;4.70;100.00
6829;BME280;17930;48.592;8.868;2022-11-15T03:52:50;96380.38;;;4.73;100.00
6829;BME280;17930;48.592;8.868;2022-11-15T03:55:19;96384.25;;;4.76;100.00
6829;BME280;17930;48.592;8.868;2022-11-15T03:57:48;96381.78;;;4.86;100.00
6829;BME280;17930;48.592;8.868;2022-11-15T04:00:16;96388.59;;;4.97;100.00
6829;BME280;17930;48.592;8.868;2022-11-15T04:02:43;96371.59;;;5.01;100.00
6829;BME280;17930;48.592;8.868;2022-11-15T04:05:11;96378.06;;;5.03;100.00
6829;BME280;17930;48.592;8.868;2022-11-15T04:07:38;96385.59;;;5.05;100.00
6829;BME280;17930;48.592;8.868;2022-11-15T04:10:06;96380.75;;;5.13;100.00
6829;BME280;17930;48.592;8.868;2022-11-15T04:12:35;96383.59;;;5.16;100.00
6829;BME280;17930;48.592;8.868;2022-11-15T04:15:04;96373.25;;;5.16;100.00
6829;BME280;17930;48.592;8.868;2022-11-15T04:17:35;96371.22;;;5.18;100.00
6829;BME280;17930;48.592;8.868;2022-11-15T04:20:03;96380.56;;;5.24;100.00
6829;BME280;17930;48.592;8.868;2022-11-15T04:22:52;96383.19;;;5.29;100.00
6829;BME280;17930;48.592;8.868;2022-11-15T04:25:36;96379.09;;;5.33;100.00
6829;BME280;17930;48.592;8.868;2022-11-15T04:28:03;96370.81;;;5.31;100.00
6829;BME280;17930;48.592;8.868;2022-11-15T04:30:30;96370.84;;;5.36;100.00
6829;BME280;17930;48.592;8.868;2022-11-15T04:32:57;96382.44;;;5.34;100.00
6829;BME280;17930;48.592;8.868;2022-11-15T04:35:24;96378.00;;;5.29;100.00
6829;BME280;17930;48.592;8.868;2022-11-15T04:37:52;96375.19;;;5.31;100.00
6829;BME280;17930;48.592;8.868;2022-11-15T04:40:18;96363.66;;;5.43;100.00
6829;BME280;17930;48.592;8.868;2022-11-15T04:42:45;96369.31;;;5.40;100.00
6829;BME280;17930;48.592;8.868;2022-11-15T04:45:12;96366.69;;;5.35;100.00
6829;BME280;17930;48.592;8.868;2022-11-15T04:47:39;96354.31;;;5.42;100.00
6829;BME280;17930;48.592;8.868;2022-11-15T04:50:07;96353.81;;;5.40;100.00
6829;BME280;17930;48.592;8.868;2022-11-15T04:52:34;96355.44;;;5.56;100.00
6829;BME280;17930;48.592;8.868;2022-11-15T04:55:03;96358.03;;;5.56;100.00
6829;BME280;17930;48.592;8.868;2022-11-15T04:57:30;96354.94;;;5.59;100.00
6829;BME280;17930;48.592;8.868;2022-11-15T04:59:56;96345.16;;;5.61;100.00
6829;BME280;17930;48.592;8.868;2022-11-15T05:02:23;96348.75;;;5.60;100.00
6829;BME280;17930;48.592;8.868;2022-11-15T05:05:10;96344.59;;;5.59;100.00
6829;BME280;17930;48.592;8.868;2022-11-15T05:07:36;96336.84;;;5.59;100.00
6829;BME280;17930;48.592;8.868;2022-11-15T05:10:04;96347.19;;;5.59;100.00
6829;BME280;17930;48.592;8.868;2022-11-15T05:12:31;96345.66;;;5.63;100.00
6829;BME280;17930;48.592;8.868;2022-11-15T05:14:58;96339.19;;;5.60;100.00
6829;BME280;17930;48.592;8.868;2022-11-15T05:17:24;96328.06;;;5.60;100.00
6829;BME280;17930;48.592;8.868;2022-11-15T05:19:51;96333.69;;;5.52;100.00
6829;BME280;17930;48.592;8.868;2022-11-15T05:22:18;96337.78;;;5.43;100.00
6829;BME280;17930;48.592;8.868;2022-11-15T05:24:45;96332.63;;;5.43;100.00
6829;BME280;17930;48.592;8.868;2022-11-15T05:27:13;96334.63;;;5.31;100.00
6829;BME280;17930;48.592;8.868;2022-11-15T05:29:40;96336.59;;;5.19;100.00
6829;BME280;17930;48.592;8.868;2022-11-15T05:32:08;96332.16;;;5.10;100.00
6829;BME280;17930;48.592;8.868;2022-11-15T05:34:36;96327.41;;;5.02;100.00
6829;BME280;17930;48.592;8.868;2022-11-15T05:37:03;96325.00;;;4.91;100.00
6829;BME280;17930;48.592;8.868;2022-11-15T05:39:30;96322.34;;;4.81;100.00
6829;BME280;17930;48.592;8.868;2022-11-15T05:42:02;96324.59;;;4.72;100.00
6829;BME280;17930;48.592;8.868;2022-11-15T05:44:34;96323.81;;;4.72;100.00
6829;BME280;17930;48.592;8.868;2022-11-15T05:47:03;96322.28;;;4.76;100.00
6829;BME280;17930;48.592;8.868;2022-11-15T05:49:35;96319.22;;;4.79;100.00
6829;BME280;17930;48.592;8.868;2022-11-15T05:52:03;96319.44;;;4.77;100.00
6829;BME280;17930;48.592;8.868;2022-11-15T05:54:32;96317.91;;;4.76;100.00
6829;BME280;17930;48.592;8.868;2022-11-15T05:56:59;96319.00;;;4.80;100.00
6829;BME280;17930;48.592;8.868;2022-11-15T05:59:28;96327.78;;;4.84;100.00
6829;BME280;17930;48.592;8.868;2022-11-15T06:01:57;96321.56;;;4.80;100.00
6829;BME280;17930;48.592;8.868;2022-11-15T06:04:25;96324.84;;;4.71;100.00
6829;BME280;17930;48.592;8.868;2022-11-15T06:06:52;96319.84;;;4.64;100.00
6829;BME280;17930;48.592;8.868;2022-11-15T06:09:21;96322.06;;;4.51;100.00
6829;BME280;17930;48.592;8.868;2022-11-15T06:11:48;96315.34;;;4.50;100.00
6829;BME280;17930;48.592;8.868;2022-11-15T06:14:15;96318.47;;;4.52;100.00
6829;BME280;17930;48.592;8.868;2022-11-15T06:16:43;96329.81;;;4.51;100.00
6829;BME280;17930;48.592;8.868;2022-11-15T06:19:11;96332.97;;;4.58;100.00
6829;BME280;17930;48.592;8.868;2022-11-15T06:21:38;96328.91;;;4.62;100.00
6829;BME280;17930;48.592;8.868;2022-11-15T06:24:13;96337.75;;;4.71;100.00
6829;BME280;17930;48.592;8.868;2022-11-15T06:26:40;96328.50;;;4.75;100.00
6829;BME280;17930;48.592;8.868;2022-11-15T06:29:07;96324.88;;;4.76;100.00
6829;BME280;17930;48.592;8.868;2022-11-15T06:31:34;96326.00;;;4.85;100.00
6829;BME280;17930;48.592;8.868;2022-11-15T06:34:01;96328.38;;;5.27;100.00
6829;BME280;17930;48.592;8.868;2022-11-15T06:36:33;96327.38;;;5.33;100.00
6829;BME280;17930;48.592;8.868;2022-11-15T06:39:03;96328.31;;;5.17;100.00
6829;BME280;17930;48.592;8.868;2022-11-15T06:41:33;96333.44;;;5.12;100.00
6829;BME280;17930;48.592;8.868;2022-11-15T06:44:00;96349.56;;;5.24;100.00
6829;BME280;17930;48.592;8.868;2022-11-15T06:46:27;96332.22;;;5.20;100.00
6829;BME280;17930;48.592;8.868;2022-11-15T06:48:54;96341.75;;;5.19;100.00
6829;BME280;17930;48.592;8.868;2022-11-15T06:51:27;96344.09;;;5.21;100.00
6829;BME280;17930;48.592;8.868;2022-11-15T06:53:55;96336.88;;;5.23;100.00
6829;BME280;17930;48.592;8.868;2022-11-15T06:56:25;96337.94;;;5.27;100.00
6829;BME280;17930;48.592;8.868;2022-11-15T06:58:53;96346.94;;;5.19;100.00
6829;BME280;17930;48.592;8.868;2022-11-15T07:01:20;96351.56;;;5.17;100.00
6829;BME280;17930;48.592;8.868;2022-11-15T07:03:47;96336.81;;;5.13;100.00
6829;BME280;17930;48.592;8.868;2022-11-15T07:06:14;96342.50;;;5.15;100.00
6829;BME280;17930;48.592;8.868;2022-11-15T07:08:42;96339.41;;;5.18;100.00
6829;BME280;17930;48.592;8.868;2022-11-15T07:11:11;96339.31;;;5.39;100.00
6829;BME280;17930;48.592;8.868;2022-11-15T07:13:37;96343.03;;;5.53;100.00
6829;BME280;17930;48.592;8.868;2022-11-15T07:16:06;96344.91;;;5.67;100.00
6829;BME280;17930;48.592;8.868;2022-11-15T07:18:34;96337.03;;;5.89;100.00
6829;BME280;17930;48.592;8.868;2022-11-15T07:21:02;96335.84;;;6.11;100.00
6829;BME280;17930;48.592;8.868;2022-11-15T07:23:29;96330.47;;;6.27;100.00
6829;BME280;17930;48.592;8.868;2022-11-15T07:25:56;96329.47;;;6.43;100.00
6829;BME280;17930;48.592;8.868;2022-11-15T07:28:25;96324.28;;;6.58;100.00
6829;BME280;17930;48.592;8.868;2022-11-15T07:30:52;96335.72;;;6.57;100.00
6829;BME280;17930;48.592;8.868;2022-11-15T07:33:19;96324.81;;;6.50;100.00
6829;BME280;17930;48.592;8.868;2022-11-15T07:35:45;96317.56;;;6.62;100.00
6829;BME280;17930;48.592;8.868;2022-11-15T07:38:15;96320.19;;;6.67;100.00
6829;BME280;17930;48.592;8.868;2022-11-15T07:40:45;96329.25;;;6.69;100.00
6829;BME280;17930;48.592;8.868;2022-11-15T07:43:12;96316.06;;;6.71;100.00
6829;BME280;17930;48.592;8.868;2022-11-15T07:45:44;96320.97;;;6.87;100.00
6829;BME280;17930;48.592;8.868;2022-11-15T07:48:11;96325.91;;;6.89;100.00
6829;BME280;17930;48.592;8.868;2022-11-15T07:50:40;96320.19;;;6.82;100.00
6829;BME280;17930;48.592;8.868;2022-11-15T07:53:08;96322.53;;;6.93;100.00
6829;BME280;17930;48.592;8.868;2022-11-15T07:55:35;96315.00;;;7.26;100.00
6829;BME280;17930;48.592;8.868;2022-11-15T07:58:02;96312.66;;;7.45;100.00
6829;BME280;17930;48.592;8.868;2022-11-15T08:00:29;96302.88;;;7.95;100.00
6829;BME280;17930;48.592;8.868;2022-11-15T08:03:05;96302.88;;;8.58;100.00
6829;BME280;17930;48.592;8.868;2022-11-15T08:05:32;96306.34;;;8.81;100.00
6829;BME280;17930;48.592;8.868;2022-11-15T08:08:00;96303.91;;;8.95;100.00
6829;BME280;17930;48.592;8.868;2022-11-15T08:10:27;96304.28;;;9.12;100.00
6829;BME280;17930;48.592;8.868;2022-11-15T08:12:58;96308.97;;;9.66;100.00
6829;BME280;17930;48.592;8.868;2022-11-15T08:15:25;96297.63;;;10.04;100.00
6829;BME280;17930;48.592;8.868;2022-11-15T08:18:21;96295.09;;;10.40;100.00
6829;BME280;17930;48.592;8.868;2022-11-15T08:20:49;96287.41;;;10.67;100.00
6829;BME280;17930;48.592;8.868;2022-11-15T08:23:15;96287.41;;;10.67;100.00
6829;BME280;17930;48.592;8.868;2022-11-15T08:25:42;96278.38;;;11.41;100.00
6829;BME280;17930;48.592;8.868;2022-11-15T08:28:10;96266.22;;;12.17;100.00
6829;BME280;17930;48.592;8.868;2022-11-15T08:30:39;96253.94;;;13.10;100.00
6829;BME280;17930;48.592;8.868;2022-11-15T08:33:10;96253.09;;;14.00;100.00
6829;BME280;17930;48.592;8.868;2022-11-15T08:35:38;96262.19;;;14.66;100.00
6829;BME280;17930;48.592;8.868;2022-11-15T08:38:05;96289.50;;;14.48;100.00
6829;BME280;17930;48.592;8.868;2022-11-15T08:40:32;96299.06;;;14.44;100.00
6829;BME280;17930;48.592;8.868;2022-11-15T08:42:59;96302.03;;;13.74;100.00
6829;BME280;17930;48.592;8.868;2022-11-15T08:45:27;96292.31;;;13.14;100.00
6829;BME280;17930;48.592;8.868;2022-11-15T08:47:54;96296.41;;;12.36;100.00
6829;BME280;17930;48.592;8.868;2022-11-15T08:50:22;96286.94;;;12.00;100.00
6829;BME280;17930;48.592;8.868;2022-11-15T08:52:50;96273.38;;;12.12;100.00
6829;BME280;17930;48.592;8.868;2022-11-15T08:55:16;96272.59;;;12.25;100.00
6829;BME280;17930;48.592;8.868;2022-11-15T08:57:43;96265.94;;;12.54;100.00
6829;BME280;17930;48.592;8.868;2022-11-15T09:00:11;96274.34;;;12.64;100.00
6829;BME280;17930;48.592;8.868;2022-11-15T09:02:38;96271.00;;;12.50;100.00
6829;BME280;17930;48.592;8.868;2022-11-15T09:05:06;96269.59;;;12.66;100.00
6829;BME280;17930;48.592;8.868;2022-11-15T09:07:33;96264.66;;;13.00;100.00
6829;BME280;17930;48.592;8.868;2022-11-15T09:10:02;96269.16;;;13.30;100.00
6829;BME280;17930;48.592;8.868;2022-11-15T09:12:29;96270.75;;;13.47;100.00
6829;BME280;17930;48.592;8.868;2022-11-15T09:14:56;96265.94;;;13.71;100.00
6829;BME280;17930;48.592;8.868;2022-11-15T09:17:23;96274.63;;;13.80;100.00
6829;BME280;17930;48.592;8.868;2022-11-15T09:19:50;96262.88;;;13.69;100.00
6829;BME280;17930;48.592;8.868;2022-11-15T09:22:16;96273.66;;;14.06;100.00
6829;BME280;17930;48.592;8.868;2022-11-15T09:24:43;96268.91;;;14.17;100.00
6829;BME280;17930;48.592;8.868;2022-11-15T09:27:11;96265.81;;;14.15;100.00
6829;BME280;17930;48.592;8.868;2022-11-15T09:29:38;96264.66;;;13.99;100.00
6829;BME280;17930;48.592;8.868;2022-11-15T09:32:05;96261.97;;;13.82;100.00
6829;BME280;17930;48.592;8.868;2022-11-15T09:34:32;96256.69;;;13.35;100.00
6829;BME280;17930;48.592;8.868;2022-11-15T09:36:59;96255.25;;;13.29;100.00
6829;BME280;17930;48.592;8.868;2022-11-15T09:39:25;96263.56;;;13.53;100.00
6829;BME280;17930;48.592;8.868;2022-11-15T09:42:05;96253.84;;;13.53;100.00
6829;BME280;17930;48.592;8.868;2022-11-15T09:45:04;96256.38;;;13.67;100.00
6829;BME280;17930;48.592;8.868;2022-11-15T09:47:56;96254.19;;;13.60;100.00
6829;BME280;17930;48.592;8.868;2022-11-15T09:50:32;96242.69;;;13.39;100.00
6829;BME280;17930;48.592;8.868;2022-11-15T09:53:00;96242.34;;;13.32;100.00
6829;BME280;17930;48.592;8.868;2022-11-15T09:55:40;96247.19;;;13.17;100.00
6829;BME280;17930;48.592;8.868;2022-11-15T09:58:20;96239.78;;;13.11;100.00
6829;BME280;17930;48.592;8.868;2022-11-15T10:00:51;96241.34;;;13.20;100.00
6829;BME280;17930;48.592;8.868;2022-11-15T10:03:25;96233.34;;;13.17;100.00
6829;BME280;17930;48.592;8.868;2022-11-15T10:05:55;96227.06;;;13.56;100.00
6829;BME280;17930;48.592;8.868;2022-11-15T10:08:40;96232.56;;;13.46;100.00
6829;BME280;17930;48.592;8.868;2022-11-15T10:11:11;96228.84;;;13.47;100.00
6829;BME280;17930;48.592;8.868;2022-11-15T10:13:45;96228.41;;;13.54;100.00
6829;BME280;17930;48.592;8.868;2022-11-15T10:16:25;96228.91;;;13.64;100.00
6829;BME280;17930;48.592;8.868;2022-11-15T10:19:03;96230.69;;;13.85;100.00
6829;BME280;17930;48.592;8.868;2022-11-15T10:21:37;96225.72;;;13.76;100.00
6829;BME280;17930;48.592;8.868;2022-11-15T10:24:10;96221.91;;;13.90;100.00
6829;BME280;17930;48.592;8.868;2022-11-15T10:26:38;96218.38;;;13.94;100.00
6829;BME280;17930;48.592;8.868;2022-11-15T10:29:04;96215.41;;;13.79;100.00
6829;BME280;17930;48.592;8.868;2022-11-15T10:31:33;96216.75;;;14.07;100.00
6829;BME280;17930;48.592;8.868;2022-11-15T10:34:11;96211.44;;;13.90;100.00
6829;BME280;17930;48.592;8.868;2022-11-15T10:36:44;96207.34;;;13.67;100.00
6829;BME280;17930;48.592;8.868;2022-11-15T10:39:11;96207.69;;;13.35;100.00
6829;BME280;17930;48.592;8.868;2022-11-15T10:41:40;96208.16;;;13.37;100.00
6829;BME280;17930;48.592;8.868;2022-11-15T10:44:22;96197.56;;;13.42;100.00
6829;BME280;17930;48.592;8.868;2022-11-15T10:47:16;96201.00;;;13.21;100.00
6829;BME280;17930;48.592;8.868;2022-11-15T10:49:54;96202.44;;;13.35;100.00
6829;BME280;17930;48.592;8.868;2022-11-15T10:52:21;96198.69;;;13.58;100.00
6829;BME280;17930;48.592;8.868;2022-11-15T10:54:53;96195.63;;;13.65;100.00
6829;BME280;17930;48.592;8.868;2022-11-15T10:57:22;96197.09;;;13.49;100.00
6829;BME280;17930;48.592;8.868;2022-11-15T10:59:51;96188.47;;;13.48;100.00
6829;BME280;17930;48.592;8.868;2022-11-15T11:02:32;96187.97;;;13.38;100.00
6829;BME280;17930;48.592;8.868;2022-11-15T11:05:02;96180.63;;;13.57;100.00
6829;BME280;17930;48.592;8.868;2022-11-15T11:07:31;96174.97;;;13.63;100.00
6829;BME280;17930;48.592;8.868;2022-11-15T11:10:00;96176.22;;;13.74;100.00
6829;BME280;17930;48.592;8.868;2022-11-15T11:12:29;96169.19;;;13.91;100.00
6829;BME280;17930;48.592;8.868;2022-11-15T11:14:57;96169.59;;;13.77;100.00
6829;BME280;17930;48.592;8.868;2022-11-15T11:17:35;96161.88;;;13.63;100.00
6829;BME280;17930;48.592;8.868;2022-11-15T11:20:10;96165.41;;;13.67;100.00
6829;BME280;17930;48.592;8.868;2022-11-15T11:22:50;96158.03;;;13.69;100.00
6829;BME280;17930;48.592;8.868;2022-11-15T11:25:27;96152.19;;;13.89;100.00
6829;BME280;17930;48.592;8.868;2022-11-15T11:28:02;96158.63;;;13.66;100.00
6829;BME280;17930;48.592;8.868;2022-11-15T11:30:41;96147.25;;;13.87;100.00
6829;BME280;17930;48.592;8.868;2022-11-15T11:33:16;96149.91;;;14.04;100.00
6829;BME280;17930;48.592;8.868;2022-11-15T11:35:50;96148.19;;;13.83;100.00
6829;BME280;17930;48.592;8.868;2022-11-15T11:38:39;96147.56;;;13.86;100.00
6829;BME280;17930;48.592;8.868;2022-11-15T11:41:17;96137.72;;;14.00;100.00
6829;BME280;17930;48.592;8.868;2022-11-15T11:44:07;96130.44;;;14.05;100.00
6829;BME280;17930;48.592;8.868;2022-11-15T11:46:48;96123.72;;;14.38;100.00
6829;BME280;17930;48.592;8.868;2022-11-15T11:49:21;96121.69;;;14.35;100.00
6829;BME280;17930;48.592;8.868;2022-11-15T11:51:54;96122.16;;;14.37;100.00
6829;BME280;17930;48.592;8.868;2022-11-15T11:54:27;96112.59;;;14.07;100.00
6829;BME280;17930;48.592;8.868;2022-11-15T11:56:59;96112.13;;;13.97;100.00
6829;BME280;17930;48.592;8.868;2022-11-15T11:59:36;96116.13;;;13.86;100.00
6829;BME280;17930;48.592;8.868;2022-11-15T12:02:12;96109.06;;;14.12;100.00
6829;BME280;17930;48.592;8.868;2022-11-15T12:04:46;96108.91;;;14.17;100.00
6829;BME280;17930;48.592;8.868;2022-11-15T12:07:18;96109.03;;;14.29;100.00
6829;BME280;17930;48.592;8.868;2022-11-15T12:09:52;96109.19;;;14.24;100.00
6829;BME280;17930;48.592;8.868;2022-11-15T12:12:25;96101.31;;;14.40;100.00
6829;BME280;17930;48.592;8.868;2022-11-15T12:14:57;96096.53;;;14.51;100.00
6829;BME280;17930;48.592;8.868;2022-11-15T12:17:26;96097.59;;;14.58;100.00
6829;BME280;17930;48.592;8.868;2022-11-15T12:19:59;96105.28;;;14.63;100.00
6829;BME280;17930;48.592;8.868;2022-11-15T12:22:35;96097.72;;;14.53;100.00
6829;BME280;17930;48.592;8.868;2022-11-15T12:25:06;96094.59;;;14.85;100.00
6829;BME280;17930;48.592;8.868;2022-11-15T12:27:39;96085.50;;;15.11;100.00
6829;BME280;17930;48.592;8.868;2022-11-15T12:30:12;96088.25;;;14.86;100.00
6829;BME280;17930;48.592;8.868;2022-11-15T12:32:49;96083.75;;;14.86;100.00
6829;BME280;17930;48.592;8.868;2022-11-15T12:35:25;96086.69;;;14.85;100.00
6829;BME280;17930;48.592;8.868;2022-11-15T12:37:54;96080.69;;;14.85;100.00
6829;BME280;17930;48.592;8.868;2022-11-15T12:40:28;96078.72;;;15.19;100.00
6829;BME280;17930;48.592;8.868;2022-11-15T12:46:12;96073.19;;;15.40;100.00
6829;BME280;17930;48.592;8.868;2022-11-15T12:48:57;96073.28;;;15.24;100.00
6829;BME280;17930;48.592;8.868;2022-11-15T12:55:00;96071.16;;;15.09;100.00
6829;BME280;17930;48.592;8.868;2022-11-15T12:57:31;96066.81;;;14.76;100.00
6829;BME280;17930;48.592;8.868;2022-11-15T12:59:59;96057.28;;;14.63;100.00
6829;BME280;17930;48.592;8.868;2022-11-15T13:02:30;96057.16;;;14.51;100.00
6829;BME280;17930;48.592;8.868;2022-11-15T13:08:39;96047.31;;;14.39;100.00
6829;BME280;17930;48.592;8.868;2022-11-15T13:14:50;96033.63;;;14.09;100.00
6829;BME280;17930;48.592;8.868;2022-11-15T13:17:24;96030.78;;;14.05;100.00
6829;BME280;17930;48.592;8.868;2022-11-15T13:19:55;96032.53;;;14.18;100.00
6829;BME280;17930;48.592;8.868;2022-11-15T13:22:24;96024.97;;;14.00;100.00
6829;BME280;17930;48.592;8.868;2022-11-15T13:25:15;96015.69;;;13.85;100.00
6829;BME280;17930;48.592;8.868;2022-11-15T13:27:46;96013.88;;;13.78;100.00
6829;BME280;17930;48.592;8.868;2022-11-15T13:30:19;96009.06;;;13.46;100.00
6829;BME280;17930;48.592;8.868;2022-11-15T13:32:46;96000.75;;;13.35;100.00
6829;BME280;17930;48.592;8.868;2022-11-15T13:35:19;95983.66;;;13.38;100.00
6829;BME280;17930;48.592;8.868;2022-11-15T13:37:47;95994.72;;;13.18;100.00
6829;BME280;17930;48.592;8.868;2022-11-15T13:40:23;95989.91;;;13.12;100.00
6829;BME280;17930;48.592;8.868;2022-11-15T13:42:53;95985.91;;;13.06;100.00